createdAt,value
2022-12-11T00:00:10.017Z,8.07
2022-12-11T00:02:39.751Z,9.38
2022-12-11T00:05:08.897Z,7.35
2022-12-11T00:07:37.578Z,7.80
2022-12-11T00:10:07.104Z,7.80
2022-12-11T00:12:35.343Z,8.95
2022-12-11T00:15:03.794Z,7.60
2022-12-11T00:17:32.254Z,7.50
2022-12-11T00:20:01.851Z,8.52
2022-12-11T00:22:31.428Z,7.30
2022-12-11T00:24:59.875Z,7.90
2022-12-11T00:27:28.515Z,7.55
2022-12-11T00:29:56.988Z,7.63
2022-12-11T00:32:28.219Z,7.28
2022-12-11T00:34:56.935Z,7.15
2022-12-11T00:37:26.680Z,8.00
2022-12-11T00:39:55.183Z,7.18
2022-12-11T00:42:23.669Z,7.35
2022-12-11T00:44:52.231Z,7.40
2022-12-11T00:47:20.747Z,8.93
2022-12-11T00:49:50.160Z,7.82
2022-12-11T00:52:18.949Z,7.75
2022-12-11T00:54:48.583Z,7.57
2022-12-11T00:57:16.784Z,7.85
2022-12-11T00:59:45.218Z,7.50
2022-12-11T01:02:13.706Z,7.65
2022-12-11T01:04:42.181Z,8.45
2022-12-11T01:07:10.658Z,7.95
2022-12-11T01:09:56.434Z,8.40
2022-12-11T01:12:28.555Z,7.75
2022-12-11T01:14:57.044Z,8.27
2022-12-11T01:17:25.510Z,7.38
2022-12-11T01:19:55.538Z,7.63
2022-12-11T01:22:23.948Z,8.02
2022-12-11T01:24:52.437Z,7.88
2022-12-11T01:27:21.056Z,7.35
2022-12-11T01:29:50.740Z,7.30
2022-12-11T01:35:06.961Z,6.68
2022-12-11T01:37:48.759Z,7.28
2022-12-11T01:40:20.594Z,7.55
2022-12-11T01:42:49.066Z,8.93
2022-12-11T01:45:28.988Z,9.27
2022-12-11T01:48:02.459Z,7.90
2022-12-11T01:50:31.707Z,9.50
2022-12-11T01:53:00.387Z,8.33
2022-12-11T01:55:28.970Z,8.18
2022-12-11T01:57:57.602Z,8.57
2022-12-11T02:00:27.127Z,9.27
2022-12-11T02:02:55.480Z,8.60
2022-12-11T02:05:23.991Z,9.30
2022-12-11T02:07:56.689Z,9.25
2022-12-11T02:10:34.029Z,9.15
2022-12-11T02:13:08.703Z,9.02
2022-12-11T02:15:43.663Z,8.98
2022-12-11T02:18:21.220Z,9.80
2022-12-11T02:20:55.603Z,8.70
2022-12-11T02:23:59.206Z,9.02
2022-12-11T02:26:44.359Z,8.73
2022-12-11T02:29:19.298Z,8.70
2022-12-11T02:31:53.056Z,8.32
2022-12-11T02:34:24.927Z,9.48
2022-12-11T02:36:56.827Z,9.30
2022-12-11T02:39:27.252Z,7.97
2022-12-11T02:41:57.384Z,9.00
2022-12-11T02:46:57.216Z,9.05
2022-12-11T02:49:27.896Z,9.88
2022-12-11T02:51:58.020Z,9.10
2022-12-11T02:57:01.609Z,9.00
2022-12-11T02:59:36.544Z,8.90
2022-12-11T03:02:06.007Z,9.80
2022-12-11T03:04:36.419Z,8.88
2022-12-11T03:07:12.322Z,8.73
2022-12-11T03:09:41.035Z,9.38
2022-12-11T03:12:13.286Z,9.05
2022-12-11T03:14:44.627Z,9.38
2022-12-11T03:17:17.407Z,11.63
2022-12-11T03:19:52.481Z,8.93
2022-12-11T03:22:25.539Z,11.25
2022-12-11T03:25:00.132Z,9.93
2022-12-11T03:27:31.411Z,9.73
2022-12-11T03:30:05.838Z,9.27
2022-12-11T03:32:39.396Z,9.93
2022-12-11T03:35:13.976Z,8.93
2022-12-11T03:37:44.693Z,9.07
2022-12-11T03:40:17.787Z,10.23
2022-12-11T03:42:49.649Z,10.00
2022-12-11T03:45:22.145Z,9.10
2022-12-11T03:47:52.268Z,9.90
2022-12-11T03:52:50.099Z,10.35
2022-12-11T03:55:20.412Z,10.50
2022-12-11T03:57:48.952Z,9.40
2022-12-11T04:00:22.129Z,10.57
2022-12-11T04:03:13.653Z,10.25
2022-12-11T04:05:42.873Z,11.02
2022-12-11T04:08:11.643Z,10.88
2022-12-11T04:10:40.193Z,10.15
2022-12-11T04:13:09.080Z,9.40
2022-12-11T04:15:38.438Z,9.35
2022-12-11T04:18:24.118Z,9.85
2022-12-11T04:21:12.122Z,9.43
2022-12-11T04:23:57.908Z,9.20
2022-12-11T04:26:26.586Z,9.95
2022-12-11T04:28:55.016Z,9.90
2022-12-11T04:31:24.912Z,10.07
2022-12-11T04:33:53.330Z,11.05
2022-12-11T04:36:21.820Z,11.80
2022-12-11T04:38:50.259Z,10.23
2022-12-11T04:41:18.818Z,10.13
2022-12-11T04:43:47.242Z,10.00
2022-12-11T04:46:17.868Z,11.50
2022-12-11T04:48:51.187Z,10.85
2022-12-11T04:51:22.425Z,10.38
2022-12-11T04:53:50.925Z,11.43
2022-12-11T04:56:19.465Z,11.25
2022-12-11T04:58:48.364Z,10.65
2022-12-11T05:01:18.187Z,9.02
2022-12-11T05:03:48.314Z,10.68
2022-12-11T05:08:45.308Z,9.70
2022-12-11T05:11:15.382Z,9.65
2022-12-11T05:16:14.323Z,10.55
2022-12-11T05:18:42.887Z,9.27
2022-12-11T05:21:14.195Z,8.85
2022-12-11T05:23:43.152Z,10.27
2022-12-11T05:26:15.239Z,10.68
2022-12-11T05:28:43.791Z,8.70
2022-12-11T05:31:15.065Z,10.25
2022-12-11T05:33:43.573Z,11.30
2022-12-11T05:36:17.168Z,10.90
2022-12-11T05:38:45.611Z,10.05
2022-12-11T05:41:16.830Z,10.57
2022-12-11T05:43:45.387Z,9.82
2022-12-11T05:46:15.232Z,9.15
2022-12-11T05:48:43.737Z,10.52
2022-12-11T05:51:14.160Z,10.77
2022-12-11T05:53:43.369Z,9.48
2022-12-11T05:56:13.929Z,9.77
2022-12-11T05:58:43.330Z,10.05
2022-12-11T06:01:14.128Z,10.15
2022-12-11T06:03:42.627Z,10.05
2022-12-11T06:06:11.157Z,11.10
2022-12-11T06:08:40.855Z,10.15
2022-12-11T06:11:09.486Z,10.25
2022-12-11T06:13:38.125Z,10.98
2022-12-11T06:16:08.281Z,11.23
2022-12-11T06:18:37.986Z,10.13
2022-12-11T06:21:16.344Z,13.35
2022-12-11T06:23:49.283Z,10.77
2022-12-11T06:26:18.658Z,9.20
2022-12-11T06:28:47.742Z,10.60
2022-12-11T06:31:16.339Z,9.10
2022-12-11T06:33:45.019Z,9.40
2022-12-11T06:36:15.737Z,9.48
2022-12-11T06:38:44.477Z,10.25
2022-12-11T06:41:14.585Z,9.50
2022-12-11T06:46:14.125Z,10.50
2022-12-11T06:48:43.395Z,10.88
2022-12-11T06:51:13.582Z,9.57
2022-12-11T06:53:42.319Z,11.45
2022-12-11T06:56:12.416Z,9.85
2022-12-11T07:01:17.299Z,10.55
2022-12-11T07:03:45.911Z,9.40
2022-12-11T07:06:15.364Z,9.85
2022-12-11T07:08:44.299Z,11.20
2022-12-11T07:11:14.176Z,31.75
2022-12-11T07:13:44.139Z,32.90
2022-12-11T07:16:13.979Z,32.03
2022-12-11T07:18:43.830Z,29.35
2022-12-11T07:21:14.184Z,30.83
2022-12-11T07:23:43.044Z,27.65
2022-12-11T07:26:12.993Z,28.77
2022-12-11T07:28:41.626Z,26.42
2022-12-11T07:31:12.987Z,32.63
2022-12-11T07:33:41.748Z,36.17
2022-12-11T07:36:12.412Z,40.60
2022-12-11T07:38:41.082Z,38.75
2022-12-11T07:41:12.198Z,37.70
2022-12-11T07:43:40.707Z,36.28
2022-12-11T07:46:13.254Z,35.13
2022-12-11T07:48:43.302Z,37.25
2022-12-11T07:51:12.368Z,40.90
2022-12-11T07:53:40.800Z,39.47
2022-12-11T07:56:09.820Z,36.63
2022-12-11T07:58:39.083Z,34.58
2022-12-11T08:01:07.891Z,35.17
2022-12-11T08:03:37.523Z,34.67
2022-12-11T08:06:06.770Z,31.90
2022-12-11T08:08:35.224Z,30.93
2022-12-11T08:11:03.653Z,33.45
2022-12-11T08:13:32.174Z,31.90
2022-12-11T08:16:00.670Z,28.40
2022-12-11T08:18:29.188Z,28.20
2022-12-11T08:20:58.773Z,25.85
2022-12-11T08:23:28.486Z,26.83
2022-12-11T08:25:57.310Z,27.40
2022-12-11T08:28:27.327Z,26.55
2022-12-11T08:33:24.251Z,23.95
2022-12-11T08:35:53.005Z,23.42
2022-12-11T08:38:25.558Z,23.48
2022-12-11T08:40:54.750Z,25.77
2022-12-11T08:43:23.547Z,23.35
2022-12-11T08:45:52.029Z,20.95
2022-12-11T08:48:20.643Z,21.42
2022-12-11T08:50:49.387Z,19.40
2022-12-11T08:53:18.709Z,22.02
2022-12-11T08:55:48.336Z,19.60
2022-12-11T08:58:16.789Z,20.42
2022-12-11T09:00:45.365Z,20.38
2022-12-11T09:03:13.834Z,22.15
2022-12-11T09:05:42.971Z,18.02
2022-12-11T09:08:12.268Z,18.33
2022-12-11T09:10:41.038Z,17.53
2022-12-11T09:13:10.795Z,17.13
2022-12-11T09:15:42.649Z,17.25
2022-12-11T09:18:11.176Z,16.00
2022-12-11T09:20:39.668Z,16.92
2022-12-11T09:23:09.553Z,16.20
2022-12-11T09:25:41.995Z,18.58
2022-12-11T09:28:11.607Z,17.63
2022-12-11T09:30:40.354Z,22.05
2022-12-11T09:33:09.069Z,18.88
2022-12-11T09:35:37.790Z,20.30
2022-12-11T09:38:06.537Z,21.30
2022-12-11T09:40:35.132Z,20.75
2022-12-11T09:43:14.157Z,20.90
2022-12-11T09:45:43.901Z,20.70
2022-12-11T09:48:14.941Z,17.48
2022-12-11T09:50:43.683Z,17.63
2022-12-11T09:53:16.849Z,17.90
2022-12-11T09:55:51.247Z,16.85
2022-12-11T09:58:27.928Z,17.13
2022-12-11T10:01:04.574Z,16.60
2022-12-11T10:03:46.694Z,17.60
2022-12-11T10:06:22.403Z,18.95
2022-12-11T10:09:02.301Z,18.75
2022-12-11T10:11:56.882Z,15.75
2022-12-11T10:14:36.765Z,15.57
2022-12-11T10:17:13.770Z,18.00
2022-12-11T10:19:43.800Z,15.70
2022-12-11T10:27:36.847Z,14.50
2022-12-11T10:30:16.523Z,16.65
2022-12-11T10:32:53.215Z,16.52
2022-12-11T10:35:32.363Z,16.13
2022-12-11T10:38:12.795Z,14.70
2022-12-11T10:40:44.220Z,15.75
2022-12-11T10:43:12.797Z,15.52
2022-12-11T10:45:41.533Z,16.52
2022-12-11T10:48:13.331Z,15.35
2022-12-11T10:50:41.953Z,13.35
2022-12-11T10:53:22.497Z,13.57
2022-12-11T10:55:51.688Z,12.93
2022-12-11T10:58:22.140Z,14.60
2022-12-11T11:01:05.018Z,12.10
2022-12-11T11:03:37.035Z,14.45
2022-12-11T11:06:16.419Z,13.75
2022-12-11T11:08:46.787Z,14.35
2022-12-11T11:11:34.409Z,13.10
2022-12-11T11:14:08.661Z,13.50
2022-12-11T11:16:39.292Z,14.32
2022-12-11T11:19:09.196Z,15.07
2022-12-11T11:21:37.552Z,12.77
2022-12-11T11:24:06.411Z,13.68
2022-12-11T11:27:11.171Z,12.57
2022-12-11T11:29:30.240Z,12.13
2022-12-11T11:31:58.882Z,11.55
2022-12-11T11:34:30.940Z,11.93
2022-12-11T11:37:05.632Z,13.57
2022-12-11T11:39:38.724Z,12.52
2022-12-11T11:42:14.895Z,12.65
2022-12-11T11:44:46.920Z,12.75
2022-12-11T11:47:19.680Z,12.70
2022-12-11T11:49:56.299Z,10.68
2022-12-11T11:52:31.826Z,12.25
2022-12-11T11:55:10.304Z,10.13
2022-12-11T11:57:44.825Z,12.82
2022-12-11T12:00:21.059Z,11.50
2022-12-11T12:02:50.811Z,10.57
2022-12-11T12:05:36.393Z,11.80
2022-12-11T12:08:11.658Z,12.02
2022-12-11T12:10:47.962Z,11.63
2022-12-11T12:13:48.669Z,12.32
2022-12-11T12:16:51.599Z,11.85
2022-12-11T12:19:20.576Z,12.27
2022-12-11T12:21:55.067Z,11.45
2022-12-11T12:24:35.632Z,11.85
2022-12-11T12:27:50.600Z,11.98
2022-12-11T12:30:15.024Z,11.30
2022-12-11T12:32:58.762Z,10.70
2022-12-11T12:35:36.776Z,11.80
2022-12-11T12:38:15.249Z,10.95
2022-12-11T12:40:56.802Z,11.80
2022-12-11T12:43:44.938Z,11.05
2022-12-11T12:46:25.413Z,11.27
2022-12-11T12:48:56.558Z,11.73
2022-12-11T12:51:25.293Z,11.63
2022-12-11T12:53:58.834Z,11.30
2022-12-11T12:56:28.934Z,11.20
2022-12-11T13:01:27.814Z,11.65
2022-12-11T13:03:59.182Z,9.93
2022-12-11T13:06:35.221Z,10.73
2022-12-11T13:09:19.089Z,11.00
2022-12-11T13:11:50.220Z,11.82
2022-12-11T13:14:29.661Z,10.57
2022-12-11T13:17:24.014Z,8.60
2022-12-11T13:20:05.398Z,9.52
2022-12-11T13:22:34.181Z,10.45
2022-12-11T13:25:22.898Z,11.00
2022-12-11T13:27:51.693Z,11.63
2022-12-11T13:30:26.456Z,10.13
2022-12-11T13:33:03.864Z,9.77
2022-12-11T13:35:33.869Z,10.27
2022-12-11T13:40:40.860Z,10.27
2022-12-11T13:43:19.242Z,10.57
2022-12-11T13:45:50.966Z,10.82
2022-12-11T13:48:28.622Z,10.18
2022-12-11T13:50:58.944Z,10.45
2022-12-11T13:53:27.761Z,9.50
2022-12-11T13:56:02.746Z,11.85
2022-12-11T13:58:35.270Z,9.25
2022-12-11T14:01:11.200Z,9.63
2022-12-11T14:03:41.905Z,11.95
2022-12-11T14:06:18.309Z,9.60
2022-12-11T14:08:51.864Z,9.95
2022-12-11T14:11:28.057Z,10.13
2022-12-11T14:13:58.942Z,10.88
2022-12-11T14:16:28.684Z,11.48
2022-12-11T14:19:02.079Z,12.32
2022-12-11T14:21:31.271Z,10.25
2022-12-11T14:24:05.386Z,10.63
2022-12-11T14:26:38.665Z,10.77
2022-12-11T14:29:07.299Z,9.45
2022-12-11T14:31:38.495Z,11.25
2022-12-11T14:34:13.902Z,10.88
2022-12-11T14:36:44.187Z,9.48
2022-12-11T14:39:15.622Z,10.55
2022-12-11T14:41:50.266Z,9.20
2022-12-11T14:44:22.733Z,8.82
2022-12-11T14:46:55.377Z,11.32
2022-12-11T14:49:28.616Z,10.32
2022-12-11T14:51:59.686Z,8.73
2022-12-11T14:54:33.305Z,9.60
2022-12-11T14:57:06.646Z,9.38
2022-12-11T14:59:40.611Z,10.82
2022-12-11T15:02:28.926Z,9.68
2022-12-11T15:05:20.395Z,10.43
2022-12-11T15:07:58.779Z,9.98
2022-12-11T15:10:33.426Z,10.30
2022-12-11T15:13:03.683Z,10.85
2022-12-11T15:15:38.998Z,10.20
2022-12-11T15:18:22.891Z,10.55
2022-12-11T15:20:54.111Z,9.15
2022-12-11T15:23:22.670Z,10.98
2022-12-11T15:25:56.797Z,10.07
2022-12-11T15:28:30.493Z,10.65
2022-12-11T15:31:01.252Z,10.45
2022-12-11T15:33:34.267Z,10.02
2022-12-11T15:36:04.780Z,8.82
2022-12-11T15:38:39.692Z,9.55
2022-12-11T15:41:12.488Z,10.20
2022-12-11T15:43:42.528Z,9.73
2022-12-11T15:48:38.983Z,9.63
2022-12-11T15:51:07.807Z,9.65
2022-12-11T15:53:36.239Z,9.43
2022-12-11T15:56:04.829Z,8.95
2022-12-11T15:58:33.522Z,10.60
2022-12-11T16:01:03.574Z,11.80
2022-12-11T16:06:00.232Z,11.32
2022-12-11T16:08:28.922Z,9.77
2022-12-11T16:10:57.735Z,11.02
2022-12-11T16:13:26.165Z,11.38
2022-12-11T16:15:54.901Z,10.88
2022-12-11T16:18:26.501Z,12.15
2022-12-11T16:20:54.981Z,12.43
2022-12-11T16:23:23.402Z,10.07
2022-12-11T16:25:52.248Z,11.02
2022-12-11T16:28:21.931Z,11.30
2022-12-11T16:30:50.889Z,13.82
2022-12-11T16:33:19.723Z,11.18
2022-12-11T16:35:50.105Z,10.55
2022-12-11T16:38:19.106Z,11.75
2022-12-11T16:40:48.096Z,12.68
2022-12-11T16:43:16.618Z,11.52
2022-12-11T16:45:45.104Z,10.38
2022-12-11T16:48:13.580Z,13.50
2022-12-11T16:50:42.207Z,14.32
2022-12-11T16:53:14.608Z,15.80
2022-12-11T16:55:43.086Z,14.00
2022-12-11T16:58:15.946Z,12.60
2022-12-11T17:00:44.430Z,11.00
2022-12-11T17:03:12.975Z,12.45
2022-12-11T17:05:41.877Z,11.85
2022-12-11T17:08:11.472Z,7.72
2022-12-11T17:10:42.111Z,9.18
2022-12-11T17:13:10.534Z,8.82
2022-12-11T17:15:41.876Z,7.57
2022-12-11T17:18:10.348Z,5.88
2022-12-11T17:20:41.868Z,7.75
2022-12-11T17:23:11.868Z,4.22
2022-12-11T17:28:10.172Z,5.25
2022-12-11T17:30:41.495Z,6.32
2022-12-11T17:33:10.879Z,8.10
2022-12-11T17:35:39.411Z,12.87
2022-12-11T17:38:08.256Z,10.95
2022-12-11T17:40:41.074Z,11.30
2022-12-11T17:43:09.573Z,12.63
2022-12-11T17:45:42.864Z,15.20
2022-12-11T17:48:11.323Z,14.77
2022-12-11T17:50:41.641Z,15.23
2022-12-11T17:53:10.770Z,12.88
2022-12-11T17:55:52.143Z,13.70
2022-12-11T17:58:22.780Z,9.73
2022-12-11T18:00:55.869Z,9.27
2022-12-11T18:03:24.554Z,7.90
2022-12-11T18:05:54.647Z,8.88
2022-12-11T18:10:53.464Z,7.10
2022-12-11T18:16:00.929Z,6.47
2022-12-11T18:18:29.839Z,3.65
2022-12-11T18:20:59.085Z,4.20
2022-12-11T18:23:28.077Z,3.80
2022-12-11T18:25:58.256Z,3.58
2022-12-11T18:28:27.102Z,4.55
2022-12-11T18:30:56.076Z,3.25
2022-12-11T18:33:24.855Z,3.63
2022-12-11T18:35:53.753Z,4.53
2022-12-11T18:38:22.607Z,4.13
2022-12-11T18:40:51.111Z,3.88
2022-12-11T18:43:20.846Z,5.63
2022-12-11T18:45:49.707Z,3.55
2022-12-11T18:48:18.148Z,3.90
2022-12-11T18:50:47.327Z,3.50
2022-12-11T18:53:16.168Z,4.20
2022-12-11T18:55:46.523Z,2.80
2022-12-11T18:58:16.699Z,3.80
2022-12-11T19:00:46.982Z,3.35
2022-12-11T19:03:16.272Z,3.63
2022-12-11T19:05:45.483Z,2.47
2022-12-11T19:08:16.543Z,3.20
2022-12-11T19:10:48.057Z,3.00
2022-12-11T19:13:28.630Z,3.20
2022-12-11T19:15:59.013Z,2.55
2022-12-11T19:18:28.588Z,2.35
2022-12-11T19:21:08.141Z,2.10
2022-12-11T19:23:38.612Z,2.45
2022-12-11T19:26:11.110Z,1.70
2022-12-11T19:28:39.767Z,2.38
2022-12-11T19:33:41.412Z,3.70
2022-12-11T19:36:12.246Z,4.15
2022-12-11T19:38:42.487Z,5.30
2022-12-11T19:41:13.583Z,5.90
2022-12-11T19:43:42.217Z,5.07
2022-12-11T19:46:12.651Z,3.65
2022-12-11T19:48:42.122Z,3.20
2022-12-11T19:51:13.107Z,4.47
2022-12-11T19:53:42.216Z,3.30
2022-12-11T19:56:10.849Z,3.95
2022-12-11T19:58:39.738Z,3.35
2022-12-11T20:01:08.827Z,3.08
2022-12-11T20:03:38.584Z,3.73
2022-12-11T20:06:10.260Z,2.63
2022-12-11T20:08:46.526Z,2.47
2022-12-11T20:11:18.780Z,2.47
2022-12-11T20:13:47.663Z,2.08
2022-12-11T20:16:17.543Z,1.60
2022-12-11T20:18:47.295Z,1.70
2022-12-11T20:21:17.588Z,1.65
2022-12-11T20:23:46.160Z,1.77
2022-12-11T20:26:16.400Z,1.55
2022-12-11T20:28:45.020Z,1.45
2022-12-11T20:31:19.995Z,1.38
2022-12-11T20:33:50.458Z,1.25
2022-12-11T20:38:48.080Z,1.77
2022-12-11T20:41:18.943Z,1.10
2022-12-11T20:43:49.055Z,1.10
2022-12-11T20:48:46.425Z,1.15
2022-12-11T20:51:23.899Z,1.58
2022-12-11T20:53:58.680Z,6.70
2022-12-11T20:56:29.678Z,7.00
2022-12-11T20:58:58.430Z,7.97
2022-12-11T21:01:30.632Z,6.97
2022-12-11T21:03:59.330Z,7.22
2022-12-11T21:06:31.657Z,7.40
2022-12-11T21:09:01.129Z,7.50
2022-12-11T21:11:29.745Z,6.70
2022-12-11T21:13:58.363Z,8.57
2022-12-11T21:16:26.897Z,8.30
2022-12-11T21:18:56.403Z,7.43
2022-12-11T21:21:25.787Z,7.43
2022-12-11T21:23:55.520Z,6.68
2022-12-11T21:26:24.150Z,6.32
2022-12-11T21:28:52.649Z,7.22
2022-12-11T21:31:21.345Z,5.97
2022-12-11T21:33:50.074Z,6.25
2022-12-11T21:36:18.812Z,5.93
2022-12-11T21:38:47.679Z,6.93
2022-12-11T21:41:19.024Z,7.18
2022-12-11T21:46:37.163Z,7.18
2022-12-11T21:49:05.772Z,6.43
2022-12-11T21:51:40.390Z,7.28
2022-12-11T21:54:14.543Z,6.35
2022-12-11T21:56:44.251Z,9.63
2022-12-11T21:59:12.518Z,7.15
2022-12-11T22:01:43.876Z,7.65
2022-12-11T22:04:13.405Z,7.85
2022-12-11T22:06:43.516Z,8.05
2022-12-11T22:09:13.273Z,8.27
2022-12-11T22:11:45.173Z,7.68
2022-12-11T22:14:14.666Z,9.77
2022-12-11T22:16:43.364Z,7.15
2022-12-11T22:19:11.958Z,7.60
2022-12-11T22:21:41.066Z,9.77
2022-12-11T22:24:09.716Z,8.43
2022-12-11T22:26:38.151Z,7.75
2022-12-11T22:29:07.872Z,8.05
2022-12-11T22:31:36.349Z,8.00
2022-12-11T22:34:04.814Z,8.32
2022-12-11T22:36:33.291Z,8.88
2022-12-11T22:39:02.189Z,7.10
2022-12-11T22:41:32.275Z,8.20
2022-12-11T22:46:32.372Z,7.63
2022-12-11T22:49:01.154Z,7.97
2022-12-11T22:51:29.624Z,9.50
2022-12-11T22:53:58.065Z,7.75
2022-12-11T22:56:26.754Z,7.60
2022-12-11T22:58:55.214Z,8.98
2022-12-11T23:01:24.821Z,8.07
2022-12-11T23:03:54.663Z,8.98
2022-12-11T23:06:25.968Z,7.30
2022-12-11T23:08:55.013Z,7.10
2022-12-11T23:11:25.943Z,8.37
2022-12-11T23:13:54.794Z,7.60
2022-12-11T23:16:23.574Z,7.93
2022-12-11T23:18:53.020Z,8.10
2022-12-11T23:21:23.100Z,7.40
2022-12-11T23:26:20.626Z,8.35
2022-12-11T23:28:49.227Z,7.03
2022-12-11T23:31:18.389Z,8.55
2022-12-11T23:33:46.626Z,8.03
2022-12-11T23:36:15.299Z,7.78
2022-12-11T23:38:49.561Z,8.35
2022-12-11T23:41:21.179Z,7.55
2022-12-11T23:43:49.608Z,7.90
2022-12-11T23:46:20.217Z,8.23
2022-12-11T23:48:49.009Z,8.55
2022-12-11T23:51:20.577Z,8.55
2022-12-11T23:53:50.675Z,8.05
2022-12-11T23:58:48.650Z,7.72
